sensor_id;sensor_type;location;lat;lon;timestamp;temperature;humidity
26035;DHT22;13809;48.632;11.576;2022-10-16T00:04:44;19.00;47.10
26035;DHT22;13809;48.632;11.576;2022-10-16T00:09:47;18.90;47.30
26035;DHT22;13809;48.632;11.576;2022-10-16T00:14:52;18.90;48.10
26035;DHT22;13809;48.632;11.576;2022-10-16T00:19:55;18.90;47.70
26035;DHT22;13809;48.632;11.576;2022-10-16T00:24:58;18.80;47.20
26035;DHT22;13809;48.632;11.576;2022-10-16T00:30:03;18.70;47.20
26035;DHT22;13809;48.632;11.576;2022-10-16T00:35:07;18.60;47.50
26035;DHT22;13809;48.632;11.576;2022-10-16T00:40:10;18.50;47.50
26035;DHT22;13809;48.632;11.576;2022-10-16T00:45:15;18.50;47.40
26035;DHT22;13809;48.632;11.576;2022-10-16T00:50:24;18.50;47.50
26035;DHT22;13809;48.632;11.576;2022-10-16T00:55:30;18.40;47.60
26035;DHT22;13809;48.632;11.576;2022-10-16T01:00:35;18.40;47.30
26035;DHT22;13809;48.632;11.576;2022-10-16T01:05:50;18.40;47.40
26035;DHT22;13809;48.632;11.576;2022-10-16T01:10:59;18.30;47.80
26035;DHT22;13809;48.632;11.576;2022-10-16T01:16:11;18.30;47.50
26035;DHT22;13809;48.632;11.576;2022-10-16T01:21:21;18.30;48.10
26035;DHT22;13809;48.632;11.576;2022-10-16T01:26:36;18.20;48.00
26035;DHT22;13809;48.632;11.576;2022-10-16T01:31:49;18.30;48.10
26035;DHT22;13809;48.632;11.576;2022-10-16T01:36:57;18.30;47.60
26035;DHT22;13809;48.632;11.576;2022-10-16T01:42:04;18.30;47.30
26035;DHT22;13809;48.632;11.576;2022-10-16T01:47:10;18.20;47.40
26035;DHT22;13809;48.632;11.576;2022-10-16T01:52:18;18.20;47.40
26035;DHT22;13809;48.632;11.576;2022-10-16T01:57:24;18.20;47.40
26035;DHT22;13809;48.632;11.576;2022-10-16T02:02:30;18.20;47.40
26035;DHT22;13809;48.632;11.576;2022-10-16T02:07:34;18.20;47.20
26035;DHT22;13809;48.632;11.576;2022-10-16T02:12:39;18.20;47.20
26035;DHT22;13809;48.632;11.576;2022-10-16T02:17:45;18.20;47.20
26035;DHT22;13809;48.632;11.576;2022-10-16T02:22:50;18.10;47.10
26035;DHT22;13809;48.632;11.576;2022-10-16T02:27:55;18.10;47.10
26035;DHT22;13809;48.632;11.576;2022-10-16T02:33:04;18.00;47.00
26035;DHT22;13809;48.632;11.576;2022-10-16T02:38:09;17.90;47.00
26035;DHT22;13809;48.632;11.576;2022-10-16T02:43:13;17.80;47.30
26035;DHT22;13809;48.632;11.576;2022-10-16T02:48:18;17.70;47.50
26035;DHT22;13809;48.632;11.576;2022-10-16T02:53:21;17.70;47.70
26035;DHT22;13809;48.632;11.576;2022-10-16T02:58:24;17.70;47.50
26035;DHT22;13809;48.632;11.576;2022-10-16T03:03:28;17.70;47.30
26035;DHT22;13809;48.632;11.576;2022-10-16T03:08:31;17.70;47.40
26035;DHT22;13809;48.632;11.576;2022-10-16T03:13:35;17.70;47.30
26035;DHT22;13809;48.632;11.576;2022-10-16T03:18:40;17.70;47.30
26035;DHT22;13809;48.632;11.576;2022-10-16T03:23:43;17.70;47.30
26035;DHT22;13809;48.632;11.576;2022-10-16T03:28:46;17.60;47.00
26035;DHT22;13809;48.632;11.576;2022-10-16T03:33:50;17.60;47.10
26035;DHT22;13809;48.632;11.576;2022-10-16T03:38:53;17.60;47.20
26035;DHT22;13809;48.632;11.576;2022-10-16T03:43:56;17.60;47.10
26035;DHT22;13809;48.632;11.576;2022-10-16T03:49:01;17.60;47.30
26035;DHT22;13809;48.632;11.576;2022-10-16T03:54:09;17.50;47.40
26035;DHT22;13809;48.632;11.576;2022-10-16T03:59:12;17.50;47.30
26035;DHT22;13809;48.632;11.576;2022-10-16T04:04:17;17.50;47.40
26035;DHT22;13809;48.632;11.576;2022-10-16T04:09:21;17.50;47.70
26035;DHT22;13809;48.632;11.576;2022-10-16T04:14:24;17.40;47.90
26035;DHT22;13809;48.632;11.576;2022-10-16T04:19:28;17.30;48.00
26035;DHT22;13809;48.632;11.576;2022-10-16T04:24:31;17.20;48.50
26035;DHT22;13809;48.632;11.576;2022-10-16T04:29:34;17.20;48.70
26035;DHT22;13809;48.632;11.576;2022-10-16T04:34:39;17.20;48.70
26035;DHT22;13809;48.632;11.576;2022-10-16T04:39:43;17.20;49.30
26035;DHT22;13809;48.632;11.576;2022-10-16T04:44:46;17.20;48.90
26035;DHT22;13809;48.632;11.576;2022-10-16T04:49:51;17.20;49.00
26035;DHT22;13809;48.632;11.576;2022-10-16T04:54:54;17.30;49.30
26035;DHT22;13809;48.632;11.576;2022-10-16T04:59:58;17.30;49.10
26035;DHT22;13809;48.632;11.576;2022-10-16T05:05:02;17.40;49.00
26035;DHT22;13809;48.632;11.576;2022-10-16T05:10:06;17.40;49.20
26035;DHT22;13809;48.632;11.576;2022-10-16T05:15:10;17.40;49.00
26035;DHT22;13809;48.632;11.576;2022-10-16T05:20:14;17.40;48.90
26035;DHT22;13809;48.632;11.576;2022-10-16T05:25:17;17.40;49.10
26035;DHT22;13809;48.632;11.576;2022-10-16T05:30:21;17.30;48.90
26035;DHT22;13809;48.632;11.576;2022-10-16T05:35:25;17.30;49.00
26035;DHT22;13809;48.632;11.576;2022-10-16T05:40:28;17.30;49.30
26035;DHT22;13809;48.632;11.576;2022-10-16T05:45:32;17.40;49.20
26035;DHT22;13809;48.632;11.576;2022-10-16T05:50:36;17.40;49.20
26035;DHT22;13809;48.632;11.576;2022-10-16T05:55:39;17.40;49.30
26035;DHT22;13809;48.632;11.576;2022-10-16T06:00:42;17.40;49.10
26035;DHT22;13809;48.632;11.576;2022-10-16T06:05:47;17.40;49.30
26035;DHT22;13809;48.632;11.576;2022-10-16T06:11:00;17.40;49.50
26035;DHT22;13809;48.632;11.576;2022-10-16T06:16:04;17.40;49.90
26035;DHT22;13809;48.632;11.576;2022-10-16T06:21:11;17.40;49.40
26035;DHT22;13809;48.632;11.576;2022-10-16T06:26:17;17.40;49.70
26035;DHT22;13809;48.632;11.576;2022-10-16T06:31:20;17.40;49.70
26035;DHT22;13809;48.632;11.576;2022-10-16T06:36:26;17.40;49.30
26035;DHT22;13809;48.632;11.576;2022-10-16T06:41:29;17.40;49.80
26035;DHT22;13809;48.632;11.576;2022-10-16T06:46:32;17.40;49.70
26035;DHT22;13809;48.632;11.576;2022-10-16T06:51:37;17.40;50.10
26035;DHT22;13809;48.632;11.576;2022-10-16T06:56:44;17.50;50.70
26035;DHT22;13809;48.632;11.576;2022-10-16T07:01:47;17.60;50.50
26035;DHT22;13809;48.632;11.576;2022-10-16T07:06:52;17.60;50.40
26035;DHT22;13809;48.632;11.576;2022-10-16T07:11:55;17.70;50.80
26035;DHT22;13809;48.632;11.576;2022-10-16T07:16:58;17.80;50.60
26035;DHT22;13809;48.632;11.576;2022-10-16T07:22:03;17.90;50.80
26035;DHT22;13809;48.632;11.576;2022-10-16T07:27:06;17.90;50.90
26035;DHT22;13809;48.632;11.576;2022-10-16T07:32:09;18.10;50.90
26035;DHT22;13809;48.632;11.576;2022-10-16T07:37:14;18.20;51.00
26035;DHT22;13809;48.632;11.576;2022-10-16T07:42:17;18.30;51.20
26035;DHT22;13809;48.632;11.576;2022-10-16T07:47:21;18.60;51.50
26035;DHT22;13809;48.632;11.576;2022-10-16T07:52:27;18.80;51.30
26035;DHT22;13809;48.632;11.576;2022-10-16T07:57:30;19.00;51.00
26035;DHT22;13809;48.632;11.576;2022-10-16T08:02:33;19.30;51.50
26035;DHT22;13809;48.632;11.576;2022-10-16T08:07:37;19.50;51.00
26035;DHT22;13809;48.632;11.576;2022-10-16T08:12:40;19.80;50.20
26035;DHT22;13809;48.632;11.576;2022-10-16T08:17:43;20.00;50.40
26035;DHT22;13809;48.632;11.576;2022-10-16T08:22:48;20.30;50.20
26035;DHT22;13809;48.632;11.576;2022-10-16T08:27:51;20.50;49.20
26035;DHT22;13809;48.632;11.576;2022-10-16T08:32:54;20.80;49.40
26035;DHT22;13809;48.632;11.576;2022-10-16T08:37:59;20.90;49.30
26035;DHT22;13809;48.632;11.576;2022-10-16T08:43:17;21.20;48.30
26035;DHT22;13809;48.632;11.576;2022-10-16T08:48:29;21.30;47.40
26035;DHT22;13809;48.632;11.576;2022-10-16T08:53:41;21.40;47.00
26035;DHT22;13809;48.632;11.576;2022-10-16T08:58:46;21.60;46.80
26035;DHT22;13809;48.632;11.576;2022-10-16T09:04:09;21.70;47.90
26035;DHT22;13809;48.632;11.576;2022-10-16T09:09:32;21.90;46.70
26035;DHT22;13809;48.632;11.576;2022-10-16T09:14:52;22.10;46.30
26035;DHT22;13809;48.632;11.576;2022-10-16T09:20:13;22.30;45.20
26035;DHT22;13809;48.632;11.576;2022-10-16T09:25:21;22.50;46.00
26035;DHT22;13809;48.632;11.576;2022-10-16T09:30:27;22.80;45.20
26035;DHT22;13809;48.632;11.576;2022-10-16T09:35:36;23.00;44.50
26035;DHT22;13809;48.632;11.576;2022-10-16T09:40:42;23.20;44.10
26035;DHT22;13809;48.632;11.576;2022-10-16T09:45:57;23.40;44.20
26035;DHT22;13809;48.632;11.576;2022-10-16T09:51:02;23.60;43.60
26035;DHT22;13809;48.632;11.576;2022-10-16T09:56:09;23.70;44.30
26035;DHT22;13809;48.632;11.576;2022-10-16T10:01:15;23.90;43.30
26035;DHT22;13809;48.632;11.576;2022-10-16T10:06:24;24.10;43.80
26035;DHT22;13809;48.632;11.576;2022-10-16T10:11:49;24.30;42.60
26035;DHT22;13809;48.632;11.576;2022-10-16T10:17:14;24.50;42.90
26035;DHT22;13809;48.632;11.576;2022-10-16T10:22:24;24.70;42.30
26035;DHT22;13809;48.632;11.576;2022-10-16T10:27:37;24.80;42.00
26035;DHT22;13809;48.632;11.576;2022-10-16T10:32:50;24.90;41.60
26035;DHT22;13809;48.632;11.576;2022-10-16T10:38:03;25.10;41.00
26035;DHT22;13809;48.632;11.576;2022-10-16T10:43:19;25.20;41.00
26035;DHT22;13809;48.632;11.576;2022-10-16T10:48:46;25.30;41.10
26035;DHT22;13809;48.632;11.576;2022-10-16T10:54:02;25.40;40.50
26035;DHT22;13809;48.632;11.576;2022-10-16T10:59:44;25.40;40.10
26035;DHT22;13809;48.632;11.576;2022-10-16T11:10:20;25.40;41.20
26035;DHT22;13809;48.632;11.576;2022-10-16T11:15:29;25.50;41.00
26035;DHT22;13809;48.632;11.576;2022-10-16T11:20:37;25.60;40.90
26035;DHT22;13809;48.632;11.576;2022-10-16T11:25:43;25.70;40.70
26035;DHT22;13809;48.632;11.576;2022-10-16T11:30:52;25.70;40.50
26035;DHT22;13809;48.632;11.576;2022-10-16T11:36:02;25.80;39.40
26035;DHT22;13809;48.632;11.576;2022-10-16T11:41:15;25.80;39.60
26035;DHT22;13809;48.632;11.576;2022-10-16T11:46:23;25.90;39.00
26035;DHT22;13809;48.632;11.576;2022-10-16T11:51:33;25.90;39.10
26035;DHT22;13809;48.632;11.576;2022-10-16T11:56:39;25.90;38.80
26035;DHT22;13809;48.632;11.576;2022-10-16T12:01:47;25.90;39.30
26035;DHT22;13809;48.632;11.576;2022-10-16T12:06:57;25.90;38.00
26035;DHT22;13809;48.632;11.576;2022-10-16T12:12:00;25.90;38.90
26035;DHT22;13809;48.632;11.576;2022-10-16T12:17:25;25.90;39.50
26035;DHT22;13809;48.632;11.576;2022-10-16T12:22:30;25.90;38.60
26035;DHT22;13809;48.632;11.576;2022-10-16T12:27:38;26.00;39.00
26035;DHT22;13809;48.632;11.576;2022-10-16T12:32:43;25.90;38.90
26035;DHT22;13809;48.632;11.576;2022-10-16T12:37:48;26.00;38.30
26035;DHT22;13809;48.632;11.576;2022-10-16T12:42:52;26.00;39.20
26035;DHT22;13809;48.632;11.576;2022-10-16T12:47:57;25.90;38.40
26035;DHT22;13809;48.632;11.576;2022-10-16T12:53:03;26.00;37.40
26035;DHT22;13809;48.632;11.576;2022-10-16T13:03:48;26.00;36.60
26035;DHT22;13809;48.632;11.576;2022-10-16T13:09:18;26.00;36.10
26035;DHT22;13809;48.632;11.576;2022-10-16T13:20:02;26.10;36.30
26035;DHT22;13809;48.632;11.576;2022-10-16T13:25:21;26.10;35.30
26035;DHT22;13809;48.632;11.576;2022-10-16T13:30:28;26.20;34.80
26035;DHT22;13809;48.632;11.576;2022-10-16T13:35:34;26.30;36.10
26035;DHT22;13809;48.632;11.576;2022-10-16T13:40:49;26.30;35.50
26035;DHT22;13809;48.632;11.576;2022-10-16T13:45:57;26.30;34.50
26035;DHT22;13809;48.632;11.576;2022-10-16T13:51:11;26.30;36.00
26035;DHT22;13809;48.632;11.576;2022-10-16T13:56:16;26.30;34.00
26035;DHT22;13809;48.632;11.576;2022-10-16T14:01:22;26.30;35.60
26035;DHT22;13809;48.632;11.576;2022-10-16T14:06:35;26.30;34.80
26035;DHT22;13809;48.632;11.576;2022-10-16T14:11:45;26.30;34.50
26035;DHT22;13809;48.632;11.576;2022-10-16T14:16:49;26.30;34.60
26035;DHT22;13809;48.632;11.576;2022-10-16T14:21:54;26.40;35.40
26035;DHT22;13809;48.632;11.576;2022-10-16T14:26:57;26.30;34.80
26035;DHT22;13809;48.632;11.576;2022-10-16T14:32:03;26.40;35.10
26035;DHT22;13809;48.632;11.576;2022-10-16T14:37:13;26.30;34.60
26035;DHT22;13809;48.632;11.576;2022-10-16T14:42:19;26.30;33.90
26035;DHT22;13809;48.632;11.576;2022-10-16T14:47:26;26.30;34.50
26035;DHT22;13809;48.632;11.576;2022-10-16T14:52:31;26.30;34.70
26035;DHT22;13809;48.632;11.576;2022-10-16T14:57:36;26.20;34.70
26035;DHT22;13809;48.632;11.576;2022-10-16T15:02:40;26.20;35.50
26035;DHT22;13809;48.632;11.576;2022-10-16T15:07:46;26.20;36.00
26035;DHT22;13809;48.632;11.576;2022-10-16T15:12:50;26.20;35.60
26035;DHT22;13809;48.632;11.576;2022-10-16T15:17:55;26.10;36.10
26035;DHT22;13809;48.632;11.576;2022-10-16T15:23:00;26.10;36.30
26035;DHT22;13809;48.632;11.576;2022-10-16T15:28:04;26.10;36.30
26035;DHT22;13809;48.632;11.576;2022-10-16T15:33:13;26.00;36.60
26035;DHT22;13809;48.632;11.576;2022-10-16T15:38:20;25.90;36.40
26035;DHT22;13809;48.632;11.576;2022-10-16T15:43:24;25.80;36.70
26035;DHT22;13809;48.632;11.576;2022-10-16T15:48:27;25.80;36.70
26035;DHT22;13809;48.632;11.576;2022-10-16T15:53:32;25.70;37.10
26035;DHT22;13809;48.632;11.576;2022-10-16T15:58:35;25.60;36.60
26035;DHT22;13809;48.632;11.576;2022-10-16T16:03:39;25.50;36.90
26035;DHT22;13809;48.632;11.576;2022-10-16T16:08:44;25.40;37.00
26035;DHT22;13809;48.632;11.576;2022-10-16T16:13:47;25.30;37.30
26035;DHT22;13809;48.632;11.576;2022-10-16T16:18:53;25.20;37.50
26035;DHT22;13809;48.632;11.576;2022-10-16T16:23:58;25.10;37.70
26035;DHT22;13809;48.632;11.576;2022-10-16T16:29:02;24.90;37.60
26035;DHT22;13809;48.632;11.576;2022-10-16T16:34:06;24.70;37.60
26035;DHT22;13809;48.632;11.576;2022-10-16T16:39:10;24.50;37.80
26035;DHT22;13809;48.632;11.576;2022-10-16T16:44:15;24.40;38.00
26035;DHT22;13809;48.632;11.576;2022-10-16T16:49:18;24.30;38.20
26035;DHT22;13809;48.632;11.576;2022-10-16T16:54:22;24.20;38.30
26035;DHT22;13809;48.632;11.576;2022-10-16T16:59:26;24.10;38.40
26035;DHT22;13809;48.632;11.576;2022-10-16T17:04:29;23.90;38.30
26035;DHT22;13809;48.632;11.576;2022-10-16T17:09:33;23.80;38.70
26035;DHT22;13809;48.632;11.576;2022-10-16T17:14:37;23.70;38.80
26035;DHT22;13809;48.632;11.576;2022-10-16T17:19:40;23.60;38.80
26035;DHT22;13809;48.632;11.576;2022-10-16T17:24:47;23.40;39.20
26035;DHT22;13809;48.632;11.576;2022-10-16T17:29:52;23.30;39.40
26035;DHT22;13809;48.632;11.576;2022-10-16T17:34:55;23.20;39.30
26035;DHT22;13809;48.632;11.576;2022-10-16T17:40:00;23.20;39.30
26035;DHT22;13809;48.632;11.576;2022-10-16T17:45:04;23.10;39.30
26035;DHT22;13809;48.632;11.576;2022-10-16T17:50:08;23.00;39.50
26035;DHT22;13809;48.632;11.576;2022-10-16T17:55:17;22.90;39.50
26035;DHT22;13809;48.632;11.576;2022-10-16T18:00:27;22.80;40.00
26035;DHT22;13809;48.632;11.576;2022-10-16T18:05:31;22.70;39.60
26035;DHT22;13809;48.632;11.576;2022-10-16T18:10:35;22.60;39.90
26035;DHT22;13809;48.632;11.576;2022-10-16T18:15:38;22.50;40.30
26035;DHT22;13809;48.632;11.576;2022-10-16T18:20:42;22.40;40.80
26035;DHT22;13809;48.632;11.576;2022-10-16T18:25:52;22.30;40.10
26035;DHT22;13809;48.632;11.576;2022-10-16T18:30:56;22.30;41.00
26035;DHT22;13809;48.632;11.576;2022-10-16T18:36:00;22.30;40.50
26035;DHT22;13809;48.632;11.576;2022-10-16T18:41:05;22.20;40.70
26035;DHT22;13809;48.632;11.576;2022-10-16T18:46:10;22.20;40.80
26035;DHT22;13809;48.632;11.576;2022-10-16T18:51:16;22.10;40.80
26035;DHT22;13809;48.632;11.576;2022-10-16T18:56:21;22.10;41.00
26035;DHT22;13809;48.632;11.576;2022-10-16T19:01:26;22.00;40.90
26035;DHT22;13809;48.632;11.576;2022-10-16T19:06:33;22.00;40.80
26035;DHT22;13809;48.632;11.576;2022-10-16T19:11:38;21.90;40.90
26035;DHT22;13809;48.632;11.576;2022-10-16T19:16:43;21.90;40.80
26035;DHT22;13809;48.632;11.576;2022-10-16T19:21:46;21.80;40.70
26035;DHT22;13809;48.632;11.576;2022-10-16T19:26:58;21.70;40.70
26035;DHT22;13809;48.632;11.576;2022-10-16T19:32:01;21.60;41.00
26035;DHT22;13809;48.632;11.576;2022-10-16T19:37:08;21.50;40.70
26035;DHT22;13809;48.632;11.576;2022-10-16T19:42:13;21.40;40.70
26035;DHT22;13809;48.632;11.576;2022-10-16T19:47:16;21.40;41.10
26035;DHT22;13809;48.632;11.576;2022-10-16T19:52:23;21.30;40.70
26035;DHT22;13809;48.632;11.576;2022-10-16T19:57:28;21.20;40.80
26035;DHT22;13809;48.632;11.576;2022-10-16T20:02:34;21.10;41.00
26035;DHT22;13809;48.632;11.576;2022-10-16T20:07:38;21.00;41.00
26035;DHT22;13809;48.632;11.576;2022-10-16T20:12:42;20.90;41.00
26035;DHT22;13809;48.632;11.576;2022-10-16T20:17:46;20.80;41.40
26035;DHT22;13809;48.632;11.576;2022-10-16T20:22:49;20.70;41.30
26035;DHT22;13809;48.632;11.576;2022-10-16T20:27:53;20.60;41.50
26035;DHT22;13809;48.632;11.576;2022-10-16T20:32:56;20.50;41.80
26035;DHT22;13809;48.632;11.576;2022-10-16T20:38:00;20.40;41.60
26035;DHT22;13809;48.632;11.576;2022-10-16T20:43:05;20.40;41.60
26035;DHT22;13809;48.632;11.576;2022-10-16T20:48:09;20.30;42.00
26035;DHT22;13809;48.632;11.576;2022-10-16T20:53:12;20.30;41.80
26035;DHT22;13809;48.632;11.576;2022-10-16T20:58:17;20.20;41.80
26035;DHT22;13809;48.632;11.576;2022-10-16T21:03:20;20.10;42.20
26035;DHT22;13809;48.632;11.576;2022-10-16T21:08:23;20.10;42.20
26035;DHT22;13809;48.632;11.576;2022-10-16T21:13:28;20.10;42.30
26035;DHT22;13809;48.632;11.576;2022-10-16T21:18:31;20.10;42.60
26035;DHT22;13809;48.632;11.576;2022-10-16T21:23:35;20.10;42.40
26035;DHT22;13809;48.632;11.576;2022-10-16T21:28:39;20.00;42.40
26035;DHT22;13809;48.632;11.576;2022-10-16T21:33:42;20.00;42.70
26035;DHT22;13809;48.632;11.576;2022-10-16T21:38:46;19.90;42.50
26035;DHT22;13809;48.632;11.576;2022-10-16T21:43:51;19.90;42.60
26035;DHT22;13809;48.632;11.576;2022-10-16T21:48:56;19.80;43.10
26035;DHT22;13809;48.632;11.576;2022-10-16T21:54:00;19.80;42.50
26035;DHT22;13809;48.632;11.576;2022-10-16T21:59:04;19.70;42.60
26035;DHT22;13809;48.632;11.576;2022-10-16T22:04:09;19.70;42.80
26035;DHT22;13809;48.632;11.576;2022-10-16T22:09:13;19.70;42.70
26035;DHT22;13809;48.632;11.576;2022-10-16T22:14:19;19.60;42.60
26035;DHT22;13809;48.632;11.576;2022-10-16T22:19:22;19.60;42.70
26035;DHT22;13809;48.632;11.576;2022-10-16T22:24:25;19.50;42.20
26035;DHT22;13809;48.632;11.576;2022-10-16T22:29:32;19.50;42.50
26035;DHT22;13809;48.632;11.576;2022-10-16T22:34:35;19.40;42.80
26035;DHT22;13809;48.632;11.576;2022-10-16T22:39:39;19.30;42.40
26035;DHT22;13809;48.632;11.576;2022-10-16T22:44:43;19.30;42.50
26035;DHT22;13809;48.632;11.576;2022-10-16T22:49:46;19.30;43.50
26035;DHT22;13809;48.632;11.576;2022-10-16T22:54:49;19.20;42.40
26035;DHT22;13809;48.632;11.576;2022-10-16T22:59:54;19.20;42.60
26035;DHT22;13809;48.632;11.576;2022-10-16T23:04:57;19.20;42.90
26035;DHT22;13809;48.632;11.576;2022-10-16T23:10:00;19.10;42.50
26035;DHT22;13809;48.632;11.576;2022-10-16T23:15:06;19.00;42.60
26035;DHT22;13809;48.632;11.576;2022-10-16T23:20:10;18.90;43.00
26035;DHT22;13809;48.632;11.576;2022-10-16T23:25:13;18.90;42.70
26035;DHT22;13809;48.632;11.576;2022-10-16T23:30:18;18.80;42.70
26035;DHT22;13809;48.632;11.576;2022-10-16T23:35:23;18.80;42.80
26035;DHT22;13809;48.632;11.576;2022-10-16T23:40:26;18.70;42.60
26035;DHT22;13809;48.632;11.576;2022-10-16T23:45:30;18.60;42.40
26035;DHT22;13809;48.632;11.576;2022-10-16T23:50:33;18.60;42.70
26035;DHT22;13809;48.632;11.576;2022-10-16T23:55:36;18.60;42.70
